Time;durP1;ratioP1;P1;durP2;ratioP2;P2;SDS_P1;SDS_P2;PMS_P1;PMS_P2;Temp;Humidity;BMP_temperature;BMP_pressure;BME280_temperature;BME280_humidity;BME280_pressure;Samples;Min_cycle;Max_cycle;Signal;HPM_P1;HPM_P2
2022/09/24 00:01:22;;;;;;;4.03;2.58;;;;;;;;;;5074458;28;20125;-68
2022/09/24 00:03:50;;;;;;;5.75;3.03;;;;;;;;;;5073313;28;20037;-68
2022/09/24 00:06:19;;;;;;;4.65;2.85;;;;;;;;;;5064390;28;20032;-68
2022/09/24 00:08:47;;;;;;;4.60;2.85;;;;;;;;;;5071798;28;20049;-69
2022/09/24 00:11:14;;;;;;;6.70;2.75;;;;;;;;;;5072961;28;20091;-68
2022/09/24 00:13:40;;;;;;;6.72;2.97;;;;;;;;;;5054471;28;20068;-68
2022/09/24 00:16:08;;;;;;;6.13;3.42;;;;;;;;;;5072798;28;21248;-69
2022/09/24 00:18:34;;;;;;;5.15;2.83;;;;;;;;;;5074019;28;20040;-68
2022/09/24 00:21:00;;;;;;;5.00;3.40;;;;;;;;;;5070892;28;20582;-68
2022/09/24 00:23:27;;;;;;;3.88;2.63;;;;;;;;;;5071168;28;20040;-68
2022/09/24 00:28:38;;;;;;;6.57;3.25;;;;;;;;;;5076230;28;20044;-68
2022/09/24 00:31:06;;;;;;;8.05;3.20;;;;;;;;;;5073754;28;20033;-68
2022/09/24 00:33:33;;;;;;;5.30;3.38;;;;;;;;;;5056713;28;20503;-68
2022/09/24 00:36:01;;;;;;;7.18;2.85;;;;;;;;;;5073208;28;20198;-68
2022/09/24 00:38:28;;;;;;;9.57;3.83;;;;;;;;;;5074798;28;20913;-67
2022/09/24 00:40:54;;;;;;;6.97;3.00;;;;;;;;;;5075417;28;20044;-68
2022/09/24 00:43:25;;;;;;;5.57;3.30;;;;;;;;;;5075338;28;20037;-68
2022/09/24 00:45:52;;;;;;;6.13;3.83;;;;;;;;;;5075055;28;20518;-68
2022/09/24 00:48:19;;;;;;;6.57;3.50;;;;;;;;;;5073462;28;20075;-68
2022/09/24 00:50:45;;;;;;;6.30;3.25;;;;;;;;;;5075558;28;20040;-68
2022/09/24 00:53:14;;;;;;;5.20;3.00;;;;;;;;;;5074309;28;20559;-67
2022/09/24 00:55:42;;;;;;;7.40;3.45;;;;;;;;;;5076294;28;20048;-68
2022/09/24 00:58:08;;;;;;;7.07;3.13;;;;;;;;;;5075207;28;20048;-68
2022/09/24 01:00:37;;;;;;;4.63;2.78;;;;;;;;;;5073441;28;20132;-67
2022/09/24 01:03:11;;;;;;;5.40;3.42;;;;;;;;;;5076595;28;20102;-67
2022/09/24 01:05:37;;;;;;;5.45;3.00;;;;;;;;;;5076650;28;20051;-68
2022/09/24 01:08:04;;;;;;;3.72;2.45;;;;;;;;;;5071474;28;20182;-68
2022/09/24 01:10:49;;;;;;;4.90;3.15;;;;;;;;;;5074968;28;20040;-67
2022/09/24 01:13:28;;;;;;;5.10;2.70;;;;;;;;;;5076237;28;20044;-67
2022/09/24 01:16:06;;;;;;;5.45;3.40;;;;;;;;;;5076747;28;20057;-68
2022/09/24 01:18:40;;;;;;;4.07;2.78;;;;;;;;;;5067608;28;20123;-67
2022/09/24 01:21:25;;;;;;;4.43;3.40;;;;;;;;;;5072564;28;20044;-68
2022/09/24 01:24:00;;;;;;;6.20;3.33;;;;;;;;;;5072529;28;20043;-67
2022/09/24 01:26:37;;;;;;;3.60;2.35;;;;;;;;;;5073444;28;20201;-68
2022/09/24 01:29:23;;;;;;;4.30;2.75;;;;;;;;;;5075723;28;20036;-69
2022/09/24 01:31:51;;;;;;;6.50;3.38;;;;;;;;;;5037895;28;20783;-67
2022/09/24 01:34:20;;;;;;;5.45;3.00;;;;;;;;;;5076927;28;20049;-67
2022/09/24 01:36:48;;;;;;;4.60;2.80;;;;;;;;;;5073299;28;20044;-68
2022/09/24 01:39:16;;;;;;;6.43;3.25;;;;;;;;;;5075654;28;20055;-68
2022/09/24 01:41:42;;;;;;;5.40;2.85;;;;;;;;;;5075710;28;20076;-68
2022/09/24 01:44:10;;;;;;;5.80;3.10;;;;;;;;;;5057870;28;20045;-68
2022/09/24 01:46:37;;;;;;;4.07;2.40;;;;;;;;;;5071546;28;20048;-68
2022/09/24 01:49:06;;;;;;;3.80;2.95;;;;;;;;;;5075110;28;20036;-67
2022/09/24 01:51:47;;;;;;;4.97;3.30;;;;;;;;;;5071508;28;20052;-68
2022/09/24 01:54:20;;;;;;;4.70;2.88;;;;;;;;;;5076057;28;20040;-67
2022/09/24 01:56:55;;;;;;;6.43;2.97;;;;;;;;;;5068136;28;20045;-67
2022/09/24 01:59:31;;;;;;;5.40;3.45;;;;;;;;;;5072215;28;20056;-68
2022/09/24 02:02:08;;;;;;;3.78;2.45;;;;;;;;;;5070654;28;20120;-68
2022/09/24 02:04:37;;;;;;;4.20;2.65;;;;;;;;;;5073321;28;20116;-67
2022/09/24 02:07:12;;;;;;;6.10;3.47;;;;;;;;;;5071835;28;20503;-67
2022/09/24 02:09:39;;;;;;;4.85;2.60;;;;;;;;;;5072657;28;20075;-67
2022/09/24 02:12:16;;;;;;;8.20;3.13;;;;;;;;;;5071740;28;20437;-67
2022/09/24 02:14:48;;;;;;;5.45;3.00;;;;;;;;;;5073468;28;20036;-68
2022/09/24 02:17:15;;;;;;;3.85;2.42;;;;;;;;;;5072187;28;20857;-67
2022/09/24 02:19:41;;;;;;;3.35;2.38;;;;;;;;;;5071921;28;20052;-68
2022/09/24 02:22:09;;;;;;;4.80;2.90;;;;;;;;;;5072251;28;20554;-68
2022/09/24 02:24:49;;;;;;;6.18;3.45;;;;;;;;;;5061813;28;20081;-69
2022/09/24 02:27:16;;;;;;;4.13;2.40;;;;;;;;;;5067418;28;20051;-67
2022/09/24 02:29:43;;;;;;;4.28;2.45;;;;;;;;;;5071880;28;20817;-67
2022/09/24 02:32:10;;;;;;;4.05;2.78;;;;;;;;;;5068966;28;21323;-67
2022/09/24 02:34:40;;;;;;;6.03;2.75;;;;;;;;;;5076763;28;20044;-68
2022/09/24 02:37:08;;;;;;;3.50;2.50;;;;;;;;;;5071137;28;20041;-68
2022/09/24 02:39:35;;;;;;;5.13;2.90;;;;;;;;;;5072399;28;20312;-68
2022/09/24 02:42:02;;;;;;;5.15;2.33;;;;;;;;;;5068214;28;20049;-67
2022/09/24 02:44:30;;;;;;;3.53;2.08;;;;;;;;;;5073743;28;20644;-67
2022/09/24 02:46:59;;;;;;;4.10;2.65;;;;;;;;;;5062554;28;20594;-67
2022/09/24 02:49:25;;;;;;;4.22;2.33;;;;;;;;;;5072351;28;20066;-67
2022/09/24 02:51:51;;;;;;;5.15;3.33;;;;;;;;;;5070835;28;20044;-67
2022/09/24 02:54:18;;;;;;;3.70;2.22;;;;;;;;;;5070832;28;20037;-66
2022/09/24 02:56:44;;;;;;;5.45;3.13;;;;;;;;;;5071934;28;20041;-68
2022/09/24 02:59:11;;;;;;;4.18;2.35;;;;;;;;;;5071959;28;20037;-67
2022/09/24 03:01:37;;;;;;;4.40;2.40;;;;;;;;;;5068089;28;20449;-67
2022/09/24 03:04:03;;;;;;;4.75;2.70;;;;;;;;;;5075139;28;20040;-67
2022/09/24 03:06:29;;;;;;;7.50;2.92;;;;;;;;;;5072233;28;20036;-67
2022/09/24 03:08:55;;;;;;;4.35;2.65;;;;;;;;;;5071399;28;20041;-67
2022/09/24 03:11:22;;;;;;;4.53;3.00;;;;;;;;;;5071184;28;20822;-67
2022/09/24 03:13:48;;;;;;;4.68;2.97;;;;;;;;;;5068923;28;20115;-67
2022/09/24 03:16:15;;;;;;;5.38;3.70;;;;;;;;;;5064206;28;20045;-67
2022/09/24 03:18:41;;;;;;;4.43;2.65;;;;;;;;;;5088165;28;20037;-67
2022/09/24 03:21:08;;;;;;;5.10;3.05;;;;;;;;;;5072796;28;20050;-67
2022/09/24 03:23:35;;;;;;;3.95;2.92;;;;;;;;;;5073653;28;20048;-67
2022/09/24 03:26:01;;;;;;;5.13;2.88;;;;;;;;;;5074944;28;20530;-67
2022/09/24 03:28:28;;;;;;;6.95;3.50;;;;;;;;;;5070696;28;20048;-67
2022/09/24 03:31:00;;;;;;;5.32;2.67;;;;;;;;;;5073124;28;20036;-67
2022/09/24 03:33:26;;;;;;;;;;;;;;;;;;5074509;28;20063;-67
2022/09/24 03:35:55;;;;;;;5.70;3.63;;;;;;;;;;5072186;28;20006;-67
2022/09/24 03:38:21;;;;;;;5.82;2.95;;;;;;;;;;5073744;28;20957;-67
2022/09/24 03:40:47;;;;;;;5.57;3.70;;;;;;;;;;5070610;28;21059;-67
2022/09/24 03:43:13;;;;;;;5.03;3.10;;;;;;;;;;5077129;28;20060;-67
2022/09/24 03:45:40;;;;;;;5.15;3.60;;;;;;;;;;5071920;28;20041;-67
2022/09/24 03:48:06;;;;;;;5.05;3.75;;;;;;;;;;5072600;28;20083;-67
2022/09/24 03:50:35;;;;;;;5.50;3.28;;;;;;;;;;5070427;28;20048;-67
2022/09/24 03:53:01;;;;;;;6.40;4.38;;;;;;;;;;5073415;28;20066;-67
2022/09/24 03:55:27;;;;;;;6.80;2.90;;;;;;;;;;5072744;28;20101;-66
2022/09/24 03:57:53;;;;;;;6.80;4.07;;;;;;;;;;5074536;28;20045;-67
2022/09/24 04:00:19;;;;;;;7.65;4.22;;;;;;;;;;5071736;28;20119;-67
2022/09/24 04:02:45;;;;;;;5.30;3.45;;;;;;;;;;5072529;28;20064;-67
2022/09/24 04:05:12;;;;;;;7.20;4.35;;;;;;;;;;5053286;28;20091;-67
2022/09/24 04:07:38;;;;;;;6.03;3.35;;;;;;;;;;5076689;28;20059;-67
2022/09/24 04:10:04;;;;;;;6.20;3.83;;;;;;;;;;5070912;28;20171;-67
2022/09/24 04:12:30;;;;;;;6.55;3.70;;;;;;;;;;5074710;28;20074;-67
2022/09/24 04:14:56;;;;;;;5.97;3.55;;;;;;;;;;5074612;28;20040;-67
2022/09/24 04:17:22;;;;;;;5.10;3.35;;;;;;;;;;5073922;28;20072;-67
2022/09/24 04:19:49;;;;;;;6.40;4.00;;;;;;;;;;5073002;28;20036;-67
2022/09/24 04:22:15;;;;;;;6.20;3.88;;;;;;;;;;5073662;28;20546;-67
2022/09/24 04:24:41;;;;;;;5.25;3.85;;;;;;;;;;5070383;28;20041;-67
2022/09/24 04:27:08;;;;;;;6.90;3.72;;;;;;;;;;5075528;28;20040;-67
2022/09/24 04:29:34;;;;;;;6.07;3.60;;;;;;;;;;5072659;28;20060;-67
2022/09/24 04:32:00;;;;;;;6.45;3.70;;;;;;;;;;5075076;28;20524;-67
2022/09/24 04:34:26;;;;;;;5.63;3.70;;;;;;;;;;5075647;28;20048;-67
2022/09/24 04:36:52;;;;;;;6.03;4.18;;;;;;;;;;5073833;28;20627;-67
2022/09/24 04:39:21;;;;;;;7.97;3.83;;;;;;;;;;5070094;28;20066;-67
2022/09/24 04:41:47;;;;;;;6.20;4.03;;;;;;;;;;5072710;28;20040;-67
2022/09/24 04:44:14;;;;;;;6.55;3.67;;;;;;;;;;5074541;28;20110;-67
2022/09/24 04:46:40;;;;;;;7.45;3.63;;;;;;;;;;5058169;28;20041;-67
2022/09/24 04:49:08;;;;;;;6.63;3.67;;;;;;;;;;5075812;28;20098;-67
2022/09/24 04:51:35;;;;;;;5.85;3.47;;;;;;;;;;5066916;28;20512;-67
2022/09/24 04:54:01;;;;;;;9.18;4.28;;;;;;;;;;5076313;28;20049;-67
2022/09/24 04:56:28;;;;;;;6.15;3.60;;;;;;;;;;5071201;28;20070;-67
2022/09/24 04:58:54;;;;;;;5.85;3.67;;;;;;;;;;5070981;28;20040;-67
2022/09/24 05:01:20;;;;;;;5.63;3.72;;;;;;;;;;5068282;28;20039;-67
2022/09/24 05:03:46;;;;;;;6.22;3.75;;;;;;;;;;5076336;28;20044;-67
2022/09/24 05:06:12;;;;;;;6.07;4.00;;;;;;;;;;5071186;28;20044;-67
2022/09/24 05:08:38;;;;;;;5.30;3.88;;;;;;;;;;5074566;28;20037;-67
2022/09/24 05:11:05;;;;;;;5.75;3.85;;;;;;;;;;5070849;28;20043;-67
2022/09/24 05:13:31;;;;;;;5.65;3.53;;;;;;;;;;5069561;28;20041;-67
2022/09/24 05:15:59;;;;;;;6.45;3.40;;;;;;;;;;5064727;28;20041;-67
2022/09/24 05:18:26;;;;;;;5.18;3.25;;;;;;;;;;5073625;28;20040;-67
2022/09/24 05:20:52;;;;;;;6.82;3.90;;;;;;;;;;5072153;28;20036;-67
2022/09/24 05:23:19;;;;;;;7.35;3.75;;;;;;;;;;5076653;28;20128;-67
2022/09/24 05:28:34;;;;;;;5.38;3.30;;;;;;;;;;5075260;28;20041;-67
2022/09/24 05:31:00;;;;;;;5.88;3.03;;;;;;;;;;5072113;28;20044;-67
2022/09/24 05:33:26;;;;;;;5.22;3.17;;;;;;;;;;5075055;28;20048;-67
2022/09/24 05:35:53;;;;;;;5.95;3.22;;;;;;;;;;5073941;28;20045;-67
2022/09/24 05:38:20;;;;;;;10.07;3.92;;;;;;;;;;5071030;28;20036;-67
2022/09/24 05:40:49;;;;;;;9.43;4.15;;;;;;;;;;5075695;28;20106;-66
2022/09/24 05:43:15;;;;;;;7.05;4.10;;;;;;;;;;5072227;28;20091;-66
2022/09/24 05:45:42;;;;;;;5.65;3.75;;;;;;;;;;5074930;28;20044;-67
2022/09/24 05:48:08;;;;;;;6.88;4.78;;;;;;;;;;5072640;28;20053;-67
2022/09/24 05:50:34;;;;;;;8.45;4.43;;;;;;;;;;5047207;28;20045;-67
2022/09/24 05:53:04;;;;;;;9.68;3.88;;;;;;;;;;5073097;28;20041;-67
2022/09/24 05:55:30;;;;;;;8.23;4.45;;;;;;;;;;5072452;28;20433;-67
2022/09/24 05:58:01;;;;;;;7.40;4.07;;;;;;;;;;5074999;28;20056;-67
2022/09/24 06:00:27;;;;;;;8.43;4.53;;;;;;;;;;5069204;28;20430;-67
2022/09/24 06:02:53;;;;;;;7.82;5.10;;;;;;;;;;5061453;28;20041;-69
2022/09/24 06:05:19;;;;;;;7.78;4.60;;;;;;;;;;5086069;28;20048;-67
2022/09/24 06:07:45;;;;;;;10.80;5.68;;;;;;;;;;5072365;28;20559;-68
2022/09/24 06:10:12;;;;;;;8.68;4.45;;;;;;;;;;5071631;28;20597;-67
2022/09/24 06:12:38;;;;;;;7.47;4.55;;;;;;;;;;5071484;28;20442;-67
2022/09/24 06:15:05;;;;;;;6.78;4.28;;;;;;;;;;5066794;28;20056;-67
2022/09/24 06:17:31;;;;;;;9.48;4.10;;;;;;;;;;5064416;28;20049;-67
2022/09/24 06:19:57;;;;;;;6.38;3.92;;;;;;;;;;5063859;28;20047;-67
2022/09/24 06:22:23;;;;;;;8.65;4.40;;;;;;;;;;5071345;28;20056;-67
2022/09/24 06:24:50;;;;;;;9.13;4.50;;;;;;;;;;5068448;28;20068;-67
2022/09/24 06:27:16;;;;;;;8.43;5.18;;;;;;;;;;5070352;28;20090;-67
2022/09/24 06:29:42;;;;;;;10.27;4.20;;;;;;;;;;5070407;28;20206;-67
2022/09/24 06:32:08;;;;;;;8.63;5.10;;;;;;;;;;5071693;28;20486;-67
2022/09/24 06:34:34;;;;;;;6.85;4.88;;;;;;;;;;5088883;28;20064;-67
2022/09/24 06:37:01;;;;;;;7.55;4.15;;;;;;;;;;5056750;28;20044;-67
2022/09/24 06:39:27;;;;;;;7.97;4.57;;;;;;;;;;5072263;28;20040;-67
2022/09/24 06:41:53;;;;;;;9.25;4.90;;;;;;;;;;5072119;28;20041;-67
2022/09/24 06:44:19;;;;;;;6.63;4.22;;;;;;;;;;5065397;28;20055;-66
2022/09/24 06:46:46;;;;;;;6.50;4.35;;;;;;;;;;5075505;28;20075;-67
2022/09/24 06:49:13;;;;;;;7.20;4.93;;;;;;;;;;5072223;28;20616;-67
2022/09/24 06:51:39;;;;;;;7.82;4.28;;;;;;;;;;5070768;28;20040;-67
2022/09/24 06:54:05;;;;;;;7.63;4.85;;;;;;;;;;5072041;28;20052;-67
2022/09/24 06:56:31;;;;;;;8.27;4.45;;;;;;;;;;5072435;28;20071;-67
2022/09/24 06:58:57;;;;;;;7.93;5.03;;;;;;;;;;5070990;28;20037;-67
2022/09/24 07:01:23;;;;;;;8.20;4.57;;;;;;;;;;5071908;28;20048;-67
2022/09/24 07:03:49;;;;;;;9.48;5.20;;;;;;;;;;5071697;28;20427;-67
2022/09/24 07:06:15;;;;;;;9.10;6.53;;;;;;;;;;5069598;28;20049;-67
2022/09/24 07:08:42;;;;;;;9.98;5.40;;;;;;;;;;5071510;28;20059;-67
2022/09/24 07:11:08;;;;;;;8.40;5.53;;;;;;;;;;5071120;28;20040;-67
2022/09/24 07:13:34;;;;;;;7.45;4.75;;;;;;;;;;5063207;28;20045;-66
2022/09/24 07:16:00;;;;;;;8.45;5.85;;;;;;;;;;5065806;28;20041;-67
2022/09/24 07:18:27;;;;;;;11.30;5.78;;;;;;;;;;5070331;28;20045;-67
2022/09/24 07:20:54;;;;;;;9.93;5.82;;;;;;;;;;5068161;28;20040;-67
2022/09/24 07:23:20;;;;;;;9.35;6.80;;;;;;;;;;5067656;28;20052;-67
2022/09/24 07:25:47;;;;;;;8.23;5.47;;;;;;;;;;5067171;28;20033;-68
2022/09/24 07:28:17;;;;;;;9.80;5.95;;;;;;;;;;5071111;28;20151;-67
2022/09/24 07:30:43;;;;;;;12.27;5.25;;;;;;;;;;5075589;28;20077;-67
2022/09/24 07:33:10;;;;;;;11.55;6.15;;;;;;;;;;5071990;28;20053;-67
2022/09/24 07:35:39;;;;;;;10.18;6.50;;;;;;;;;;5073192;28;20048;-67
2022/09/24 07:38:06;;;;;;;8.93;6.75;;;;;;;;;;5073888;28;20075;-67
2022/09/24 07:40:32;;;;;;;9.50;6.32;;;;;;;;;;5073019;28;20102;-67
2022/09/24 07:42:59;;;;;;;10.27;6.90;;;;;;;;;;5071532;28;20045;-67
2022/09/24 07:45:27;;;;;;;13.15;7.03;;;;;;;;;;5071507;28;20123;-68
2022/09/24 07:47:57;;;;;;;11.00;6.20;;;;;;;;;;5066803;28;20044;-70
2022/09/24 07:50:23;;;;;;;9.43;6.35;;;;;;;;;;5068931;28;20067;-73
2022/09/24 07:52:50;;;;;;;10.43;7.25;;;;;;;;;;5067165;28;20600;-68
2022/09/24 07:55:17;;;;;;;13.63;7.93;;;;;;;;;;5069186;28;20040;-68
2022/09/24 07:57:51;;;;;;;12.90;7.82;;;;;;;;;;5073569;28;20040;-68
2022/09/24 08:00:17;;;;;;;11.32;6.82;;;;;;;;;;5072587;28;20615;-68
2022/09/24 08:02:46;;;;;;;13.32;7.15;;;;;;;;;;5073490;28;20115;-68
2022/09/24 08:05:14;;;;;;;11.13;6.60;;;;;;;;;;5071590;28;20048;-68
2022/09/24 08:07:41;;;;;;;13.82;7.60;;;;;;;;;;5070769;28;20093;-67
2022/09/24 08:10:07;;;;;;;11.80;7.57;;;;;;;;;;5066257;28;20048;-68
2022/09/24 08:12:33;;;;;;;13.05;8.07;;;;;;;;;;5063895;28;20040;-68
2022/09/24 08:15:00;;;;;;;10.50;6.18;;;;;;;;;;5069889;28;20521;-67
2022/09/24 08:17:26;;;;;;;11.57;7.60;;;;;;;;;;5070880;28;20052;-68
2022/09/24 08:19:55;;;;;;;11.98;6.65;;;;;;;;;;5065382;28;20043;-68
2022/09/24 08:22:22;;;;;;;13.15;7.38;;;;;;;;;;5064990;28;20509;-68
2022/09/24 08:24:49;;;;;;;10.48;7.22;;;;;;;;;;5069867;28;20445;-68
2022/09/24 08:27:16;;;;;;;11.43;7.72;;;;;;;;;;5066692;28;20609;-69
2022/09/24 08:29:42;;;;;;;14.40;8.07;;;;;;;;;;5070191;28;20076;-67
2022/09/24 08:32:08;;;;;;;13.55;8.50;;;;;;;;;;5069716;28;20172;-67
2022/09/24 08:34:39;;;;;;;12.63;7.50;;;;;;;;;;5067840;28;20051;-67
2022/09/24 08:37:05;;;;;;;13.45;7.93;;;;;;;;;;5069288;28;20121;-71
2022/09/24 08:39:32;;;;;;;15.35;8.82;;;;;;;;;;5069008;28;20042;-67
2022/09/24 08:42:06;;;;;;;12.77;8.18;;;;;;;;;;5068631;28;20032;-67
2022/09/24 08:47:36;;;;;;;14.93;9.05;;;;;;;;;;5074785;28;20052;-68
2022/09/24 08:50:12;;;;;;;12.90;8.43;;;;;;;;;;5076089;28;20051;-68
2022/09/24 08:52:54;;;;;;;13.77;8.75;;;;;;;;;;5057590;28;20119;-69
2022/09/24 08:55:20;;;;;;;12.95;8.60;;;;;;;;;;5089338;28;21747;-68
2022/09/24 08:58:02;;;;;;;13.65;8.93;;;;;;;;;;5067153;28;20052;-68
2022/09/24 09:00:31;;;;;;;14.25;8.38;;;;;;;;;;5072187;28;20048;-68
2022/09/24 09:02:57;;;;;;;15.00;8.52;;;;;;;;;;5071966;28;20126;-69
2022/09/24 09:05:43;;;;;;;12.60;7.03;;;;;;;;;;5072980;28;20136;-68
2022/09/24 09:08:32;;;;;;;11.88;8.73;;;;;;;;;;5044874;28;20072;-68
2022/09/24 09:11:01;;;;;;;15.05;7.97;;;;;;;;;;5066965;28;20131;-68
2022/09/24 09:13:30;;;;;;;14.70;9.15;;;;;;;;;;5065256;28;20040;-68
2022/09/24 09:16:14;;;;;;;15.93;10.15;;;;;;;;;;5067850;28;20571;-68
2022/09/24 09:18:41;;;;;;;11.52;7.47;;;;;;;;;;5064977;28;20025;-68
2022/09/24 09:21:18;;;;;;;12.90;8.18;;;;;;;;;;5073246;28;20058;-68
2022/09/24 09:23:47;;;;;;;12.40;7.68;;;;;;;;;;5072529;28;20151;-68
2022/09/24 09:26:13;;;;;;;13.70;7.68;;;;;;;;;;5072484;28;20041;-68
2022/09/24 09:28:39;;;;;;;11.82;6.88;;;;;;;;;;5072570;28;20078;-68
2022/09/24 09:31:06;;;;;;;11.38;7.60;;;;;;;;;;5070111;28;20044;-68
2022/09/24 09:33:32;;;;;;;11.65;7.45;;;;;;;;;;5054407;28;20155;-68
2022/09/24 09:36:14;;;;;;;14.20;7.75;;;;;;;;;;5067126;28;20104;-69
2022/09/24 09:38:48;;;;;;;13.90;8.50;;;;;;;;;;5073959;28;20107;-69
2022/09/24 09:41:26;;;;;;;13.10;7.85;;;;;;;;;;5073211;28;20045;-75
2022/09/24 09:43:55;;;;;;;15.50;8.93;;;;;;;;;;5072738;28;20083;-75
2022/09/24 09:46:23;;;;;;;12.82;8.32;;;;;;;;;;5070717;28;20044;-68
2022/09/24 09:48:53;;;;;;;9.98;6.75;;;;;;;;;;5069732;28;20100;-68
2022/09/24 09:51:20;;;;;;;11.55;6.88;;;;;;;;;;5077826;28;20131;-69
2022/09/24 09:54:00;;;;;;;17.25;7.65;;;;;;;;;;5074244;28;20048;-69
2022/09/24 09:56:42;;;;;;;13.05;7.97;;;;;;;;;;5075004;28;20076;-69
2022/09/24 09:59:08;;;;;;;10.75;7.18;;;;;;;;;;5074358;28;20036;-68
2022/09/24 10:01:36;;;;;;;12.40;7.97;;;;;;;;;;5074933;28;20118;-68
2022/09/24 10:04:03;;;;;;;12.23;7.30;;;;;;;;;;5069030;28;20048;-68
2022/09/24 10:06:30;;;;;;;12.82;7.82;;;;;;;;;;5073728;28;20036;-68
2022/09/24 10:09:07;;;;;;;10.40;7.47;;;;;;;;;;5071111;28;20046;-68
2022/09/24 10:11:33;;;;;;;10.63;6.75;;;;;;;;;;5071414;28;20051;-69
2022/09/24 10:14:08;;;;;;;11.23;7.38;;;;;;;;;;5072867;28;20041;-68
2022/09/24 10:16:39;;;;;;;8.00;4.65;;;;;;;;;;5069038;28;20533;-68
2022/09/24 10:19:14;;;;;;;7.43;4.50;;;;;;;;;;5070400;28;20041;-68
2022/09/24 10:21:40;;;;;;;7.22;4.65;;;;;;;;;;5073892;28;20036;-68
2022/09/24 10:24:11;;;;;;;7.78;4.95;;;;;;;;;;5073352;28;20052;-68
2022/09/24 10:26:41;;;;;;;8.77;5.38;;;;;;;;;;5073149;28;20072;-69
2022/09/24 10:32:15;;;;;;;8.48;4.93;;;;;;;;;;5075809;28;20053;-68
2022/09/24 10:34:41;;;;;;;8.90;5.55;;;;;;;;;;5075521;28;20535;-68
2022/09/24 10:37:14;;;;;;;8.50;5.20;;;;;;;;;;5074671;28;20586;-68
2022/09/24 10:39:41;;;;;;;5.35;4.65;;;;;;;;;;5075641;28;20560;-68
2022/09/24 10:42:26;;;;;;;8.15;4.88;;;;;;;;;;5074279;28;20048;-69
2022/09/24 10:44:52;;;;;;;6.85;4.32;;;;;;;;;;5073800;28;20049;-69
2022/09/24 10:47:19;;;;;;;7.95;5.55;;;;;;;;;;5073161;28;20863;-68
2022/09/24 10:49:51;;;;;;;7.78;5.50;;;;;;;;;;5071432;28;20123;-69
2022/09/24 10:52:29;;;;;;;9.23;5.35;;;;;;;;;;5075567;28;20589;-68
2022/09/24 10:55:07;;;;;;;8.82;5.97;;;;;;;;;;5074221;28;20143;-69
2022/09/24 10:57:43;;;;;;;8.57;5.43;;;;;;;;;;5073715;28;20041;-68
2022/09/24 11:00:12;;;;;;;8.95;5.15;;;;;;;;;;5073149;28;20044;-69
2022/09/24 11:02:41;;;;;;;7.72;4.45;;;;;;;;;;5074241;28;20514;-68
2022/09/24 11:05:11;;;;;;;7.75;4.75;;;;;;;;;;5073292;28;20045;-68
2022/09/24 11:07:59;;;;;;;7.57;4.65;;;;;;;;;;5073468;28;20044;-69
2022/09/24 11:10:28;;;;;;;7.50;5.25;;;;;;;;;;5075081;28;20829;-69
2022/09/24 11:13:14;;;;;;;10.48;5.78;;;;;;;;;;5075061;28;20036;-69
2022/09/24 11:15:49;;;;;;;8.95;5.10;;;;;;;;;;5073988;28;20168;-68
2022/09/24 11:18:35;;;;;;;9.18;6.43;;;;;;;;;;5072881;28;20045;-69
2022/09/24 11:21:22;;;;;;;8.30;5.07;;;;;;;;;;5068345;28;20119;-78
2022/09/24 11:23:51;;;;;;;7.35;4.80;;;;;;;;;;5055128;28;20172;-74
2022/09/24 11:26:27;;;;;;;9.30;5.43;;;;;;;;;;5072410;28;20037;-73
2022/09/24 11:29:12;;;;;;;8.43;4.85;;;;;;;;;;5075569;28;20040;-79
2022/09/24 11:31:58;;;;;;;7.57;5.60;;;;;;;;;;5072453;28;20094;-74
2022/09/24 11:34:36;;;;;;;9.30;5.25;;;;;;;;;;5067459;28;20040;-69
2022/09/24 11:37:25;;;;;;;8.32;4.57;;;;;;;;;;5068400;28;20043;-71
2022/09/24 11:40:02;;;;;;;6.97;4.47;;;;;;;;;;5030830;28;20057;-71
2022/09/24 11:42:33;;;;;;;9.50;4.97;;;;;;;;;;5068902;28;20186;-68
2022/09/24 11:45:23;;;;;;;8.83;5.47;;;;;;;;;;5065806;28;20095;-74
2022/09/24 11:47:53;;;;;;;8.02;5.57;;;;;;;;;;5067723;28;20048;-73
2022/09/24 11:50:31;;;;;;;7.57;5.28;;;;;;;;;;5067188;28;20041;-70
2022/09/24 11:53:02;;;;;;;7.13;4.93;;;;;;;;;;5069675;28;20051;-69
2022/09/24 11:55:39;;;;;;;9.25;4.78;;;;;;;;;;5068419;28;20587;-69
2022/09/24 11:58:18;;;;;;;7.78;4.20;;;;;;;;;;5086425;28;20074;-75
2022/09/24 12:00:49;;;;;;;4.90;3.53;;;;;;;;;;5067729;28;20131;-68
2022/09/24 12:03:15;;;;;;;7.15;3.67;;;;;;;;;;5067658;28;20608;-67
2022/09/24 12:06:03;;;;;;;4.38;3.30;;;;;;;;;;5067408;28;20054;-68
2022/09/24 12:08:35;;;;;;;4.70;3.67;;;;;;;;;;5066959;28;20044;-68
2022/09/24 12:11:03;;;;;;;5.55;3.17;;;;;;;;;;5065169;28;20041;-68
2022/09/24 12:13:33;;;;;;;3.70;2.47;;;;;;;;;;5064642;28;20107;-69
2022/09/24 12:16:04;;;;;;;4.25;2.72;;;;;;;;;;5063162;28;20038;-68
2022/09/24 12:18:33;;;;;;;4.53;3.40;;;;;;;;;;5069501;28;20106;-68
2022/09/24 12:21:02;;;;;;;3.50;2.40;;;;;;;;;;5064674;28;20072;-68
2022/09/24 12:23:32;;;;;;;3.50;2.08;;;;;;;;;;5074048;28;20517;-68
2022/09/24 12:25:59;;;;;;;3.10;2.08;;;;;;;;;;5049537;28;20072;-68
2022/09/24 12:34:26;;;;;;;4.00;2.50;;;;;;;;;;5074493;28;20056;-68
2022/09/24 12:37:05;;;;;;;3.28;2.13;;;;;;;;;;5069496;28;20052;-68
2022/09/24 12:39:36;;;;;;;4.63;2.50;;;;;;;;;;5070927;28;20052;-68
2022/09/24 12:42:04;;;;;;;3.17;2.17;;;;;;;;;;5075428;28;20048;-68
2022/09/24 12:44:36;;;;;;;4.35;2.42;;;;;;;;;;5069212;28;20781;-76
2022/09/24 12:47:02;;;;;;;3.35;2.40;;;;;;;;;;5085979;28;20048;-68
2022/09/24 12:49:39;;;;;;;3.15;1.75;;;;;;;;;;5074520;28;20367;-78
2022/09/24 12:52:22;;;;;;;3.00;1.92;;;;;;;;;;5068612;28;20112;-70
2022/09/24 12:54:54;;;;;;;3.85;1.58;;;;;;;;;;5071544;28;20047;-70
2022/09/24 12:57:21;;;;;;;4.07;2.38;;;;;;;;;;5073363;28;20526;-69
2022/09/24 13:00:01;;;;;;;4.40;1.85;;;;;;;;;;5065839;28;20047;-69
2022/09/24 13:02:34;;;;;;;2.70;1.52;;;;;;;;;;5071450;28;20049;-69
2022/09/24 13:05:03;;;;;;;2.00;1.30;;;;;;;;;;5070879;28;20032;-68
2022/09/24 13:07:32;;;;;;;1.95;1.20;;;;;;;;;;5073794;28;20186;-69
2022/09/24 13:10:11;;;;;;;3.85;1.40;;;;;;;;;;5073709;28;20151;-68
2022/09/24 13:12:37;;;;;;;2.15;1.38;;;;;;;;;;5071984;28;20507;-69
2022/09/24 13:15:05;;;;;;;2.13;1.38;;;;;;;;;;5073741;28;20041;-69
2022/09/24 13:17:32;;;;;;;1.70;1.20;;;;;;;;;;5070939;28;20183;-69
2022/09/24 13:19:59;;;;;;;2.13;1.38;;;;;;;;;;5071777;28;20072;-68
2022/09/24 13:22:28;;;;;;;2.05;1.33;;;;;;;;;;5073509;28;20053;-69
2022/09/24 13:25:14;;;;;;;1.85;1.25;;;;;;;;;;5071581;28;20114;-69
2022/09/24 13:27:41;;;;;;;2.40;2.00;;;;;;;;;;5048448;28;20068;-69
2022/09/24 13:30:16;;;;;;;5.05;2.03;;;;;;;;;;5072108;28;20033;-69
2022/09/24 13:33:01;;;;;;;3.75;2.47;;;;;;;;;;5064487;28;20051;-68
2022/09/24 13:35:30;;;;;;;4.43;2.40;;;;;;;;;;5074159;28;20071;-69
2022/09/24 13:38:06;;;;;;;6.63;2.20;;;;;;;;;;5074697;28;20045;-69
2022/09/24 13:40:34;;;;;;;4.50;2.50;;;;;;;;;;5072021;28;20059;-69
2022/09/24 13:43:15;;;;;;;2.60;1.67;;;;;;;;;;5071645;28;20529;-69
2022/09/24 13:45:44;;;;;;;5.35;1.95;;;;;;;;;;5067051;28;20040;-68
2022/09/24 13:48:28;;;;;;;3.40;2.13;;;;;;;;;;5073533;28;20033;-69
2022/09/24 13:50:55;;;;;;;3.65;1.60;;;;;;;;;;5072745;28;20080;-68
2022/09/24 13:53:39;;;;;;;2.33;1.63;;;;;;;;;;5073538;28;20147;-69
2022/09/24 13:56:11;;;;;;;2.55;1.80;;;;;;;;;;5071295;28;20072;-68
2022/09/24 13:58:38;;;;;;;1.77;1.25;;;;;;;;;;5069948;28;20049;-69
2022/09/24 14:01:25;;;;;;;1.52;1.15;;;;;;;;;;5072659;28;20533;-69
2022/09/24 14:03:54;;;;;;;1.25;0.85;;;;;;;;;;5058064;28;20044;-69
2022/09/24 14:06:22;;;;;;;2.53;1.02;;;;;;;;;;5074613;28;20037;-69
2022/09/24 14:08:48;;;;;;;1.80;1.15;;;;;;;;;;5070748;28;20045;-69
2022/09/24 14:11:17;;;;;;;1.88;1.00;;;;;;;;;;5073541;28;20040;-69
2022/09/24 14:13:46;;;;;;;1.70;1.20;;;;;;;;;;5065669;28;20536;-69
2022/09/24 14:16:14;;;;;;;2.55;1.50;;;;;;;;;;5072264;28;20045;-69
2022/09/24 14:18:40;;;;;;;2.45;1.42;;;;;;;;;;5066414;28;20047;-69
2022/09/24 14:21:09;;;;;;;2.58;1.17;;;;;;;;;;5062493;28;20055;-69
2022/09/24 14:23:57;;;;;;;2.55;1.38;;;;;;;;;;5070528;28;20041;-69
2022/09/24 14:26:27;;;;;;;1.80;1.02;;;;;;;;;;5074798;28;20064;-69
2022/09/24 14:28:53;;;;;;;2.13;1.40;;;;;;;;;;5071660;28;20167;-69
2022/09/24 14:31:19;;;;;;;7.75;2.03;;;;;;;;;;5075794;28;20040;-70
2022/09/24 14:33:46;;;;;;;2.97;1.45;;;;;;;;;;5066788;28;20522;-69
2022/09/24 14:36:13;;;;;;;2.33;1.63;;;;;;;;;;5073633;28;20075;-69
2022/09/24 14:38:56;;;;;;;2.35;1.60;;;;;;;;;;5072034;28;20094;-69
2022/09/24 14:41:28;;;;;;;2.20;1.40;;;;;;;;;;5070510;28;21931;-69
2022/09/24 14:43:57;;;;;;;1.55;1.10;;;;;;;;;;5070602;28;20590;-68
2022/09/24 14:46:23;;;;;;;3.50;1.85;;;;;;;;;;5072906;28;20047;-69
2022/09/24 14:48:51;;;;;;;2.70;1.67;;;;;;;;;;5071196;28;20052;-68
2022/09/24 14:51:23;;;;;;;3.88;1.98;;;;;;;;;;5071247;28;20044;-69
2022/09/24 14:53:56;;;;;;;3.50;2.35;;;;;;;;;;5071326;28;20542;-68
2022/09/24 14:56:28;;;;;;;3.50;2.38;;;;;;;;;;5067674;28;20065;-69
2022/09/24 14:58:54;;;;;;;3.28;2.15;;;;;;;;;;5071880;28;20039;-69
2022/09/24 15:01:21;;;;;;;4.57;2.63;;;;;;;;;;5069979;28;20051;-69
2022/09/24 15:03:49;;;;;;;5.65;2.72;;;;;;;;;;5073124;28;20076;-69
2022/09/24 15:06:15;;;;;;;48.67;25.95;;;;;;;;;;5071273;28;20036;-68
2022/09/24 15:08:41;;;;;;;7.63;4.45;;;;;;;;;;5054466;28;20567;-68
2022/09/24 15:11:14;;;;;;;5.25;2.97;;;;;;;;;;5069751;28;20045;-68
2022/09/24 15:13:40;;;;;;;5.32;3.47;;;;;;;;;;5052047;28;20052;-69